Time;durP1;ratioP1;P1;durP2;ratioP2;P2;SDS_P1;SDS_P2;PMS_P1;PMS_P2;Temp;Humidity;BMP_temperature;BMP_pressure;BME280_temperature;BME280_humidity;BME280_pressure;Samples;Min_cycle;Max_cycle;Signal;HPM_P1;HPM_P2
2023/04/25 00:06:53;;;;;;;5.55;1.50;;;;;;;8.98;67.58;99210.31;30976610;28;96908;-66
2023/04/25 00:21:55;;;;;;;3.80;1.47;;;;;;;8.92;67.13;99214.50;30976102;28;96633;-67
2023/04/25 00:36:56;;;;;;;3.13;1.17;;;;;;;8.84;67.17;99216.44;30975953;28;97117;-66
2023/04/25 00:51:57;;;;;;;1.80;1.23;;;;;;;8.73;67.33;99223.81;30972516;28;96916;-66
2023/04/25 01:06:58;;;;;;;2.90;1.33;;;;;;;8.67;67.05;99229.88;30977148;28;96717;-65
2023/04/25 01:21:58;;;;;;;3.45;2.10;;;;;;;8.55;66.53;99226.00;30982851;28;97030;-66
2023/04/25 01:37:00;;;;;;;4.15;2.30;;;;;;;8.45;66.48;99234.25;30969244;28;96721;-66
2023/04/25 01:52:01;;;;;;;5.20;2.43;;;;;;;8.32;66.29;99242.75;30988669;28;97327;-63
2023/04/25 02:07:01;;;;;;;4.88;2.42;;;;;;;8.14;66.17;99251.84;30988916;28;97392;-65
2023/04/25 02:22:01;;;;;;;6.30;3.03;;;;;;;7.97;66.35;99234.44;30978016;28;99963;-66
2023/04/25 02:37:02;;;;;;;4.72;2.78;;;;;;;7.87;66.62;99239.94;30932982;28;97840;-66
2023/04/25 02:52:02;;;;;;;4.47;2.80;;;;;;;7.78;66.35;99244.47;30976022;28;97856;-64
2023/04/25 03:07:04;;;;;;;5.68;3.50;;;;;;;7.63;67.04;99235.63;30981425;28;96616;-65
2023/04/25 03:22:04;;;;;;;5.20;3.30;;;;;;;7.42;67.06;99239.72;30979719;28;96750;-65
2023/04/25 03:37:04;;;;;;;7.38;3.13;;;;;;;7.29;66.98;99242.91;30979518;28;96709;-66
2023/04/25 03:52:05;;;;;;;5.78;3.40;;;;;;;7.27;67.03;99246.72;30973089;28;96696;-65
2023/04/25 04:07:05;;;;;;;7.30;3.65;;;;;;;7.35;66.99;99264.41;30972365;28;96609;-64
2023/04/25 04:22:06;;;;;;;8.27;4.05;;;;;;;7.49;67.15;99269.00;30969559;28;97264;-64
2023/04/25 04:37:06;;;;;;;7.30;4.00;;;;;;;7.51;66.61;99284.72;30969265;28;96979;-64
2023/04/25 04:52:07;;;;;;;12.80;4.20;;;;;;;7.60;66.82;99281.88;30988689;28;97279;-65
2023/04/25 05:07:07;;;;;;;8.13;3.88;;;;;;;7.96;66.01;99280.50;30991733;28;104208;-64
2023/04/25 05:22:07;;;;;;;6.28;3.85;;;;;;;8.46;65.74;99287.13;30991162;28;96593;-64
2023/04/25 05:37:08;;;;;;;4.18;3.08;;;;;;;8.95;64.35;99283.22;30990978;28;96714;-64
2023/04/25 05:52:08;;;;;;;5.88;3.63;;;;;;;9.40;63.61;99280.53;30984888;28;106589;-64
2023/04/25 06:07:08;;;;;;;4.43;3.38;;;;;;;10.06;61.67;99273.50;30986444;28;97242;-64
2023/04/25 06:22:09;;;;;;;6.82;3.67;;;;;;;10.70;59.88;99277.97;30985030;28;96659;-65
2023/04/25 06:37:10;;;;;;;5.10;2.93;;;;;;;11.65;57.40;99272.16;30983381;28;97326;-65
2023/04/25 06:52:10;;;;;;;11.02;3.08;;;;;;;12.31;55.74;99268.03;30980679;28;96768;-65
2023/04/25 07:07:10;;;;;;;5.82;2.50;;;;;;;13.08;53.11;99265.72;30961607;28;98618;-65
2023/04/25 07:22:11;;;;;;;4.15;2.35;;;;;;;13.71;51.22;99266.97;30980409;28;106212;-64
2023/04/25 07:37:11;;;;;;;4.25;1.85;;;;;;;14.54;48.67;99262.50;30976237;28;96818;-66
2023/04/25 07:52:11;;;;;;;4.60;2.10;;;;;;;14.93;46.07;99267.78;30971814;28;96731;-63
2023/04/25 08:07:12;;;;;;;9.35;3.03;;;;;;;16.06;43.83;99255.69;30956177;28;105420;-63
2023/04/25 08:22:12;;;;;;;6.15;3.08;;;;;;;15.81;42.14;99271.94;30973123;28;96756;-63
2023/04/25 08:37:12;;;;;;;6.80;4.35;;;;;;;14.83;43.38;99279.81;30971480;28;97363;-66
2023/04/25 08:52:13;;;;;;;5.78;4.20;;;;;;;14.44;44.25;99275.59;30972032;28;96846;-64
2023/04/25 09:07:18;;;;;;;9.98;4.90;;;;;;;15.36;43.84;99289.19;30971259;28;96911;-64
2023/04/25 09:22:21;;;;;;;6.47;4.83;;;;;;;17.33;40.56;99289.56;30967557;28;97472;-64
2023/04/25 09:37:27;;;;;;;6.17;3.40;;;;;;;21.71;31.87;99284.28;30986323;28;96717;-64
2023/04/25 09:52:28;;;;;;;4.30;2.70;;;;;;;18.96;33.88;99294.69;30985982;28;96912;-64
2023/04/25 10:07:30;;;;;;;8.63;3.30;;;;;;;17.22;36.47;99302.84;30984070;28;96744;-64
2023/04/25 10:22:35;;;;;;;7.70;3.90;;;;;;;19.95;35.31;99301.13;30985346;28;96719;-64
2023/04/25 10:37:36;;;;;;;3.50;2.57;;;;;;;19.77;32.58;99292.25;30982947;28;97321;-67
2023/04/25 10:52:38;;;;;;;5.88;2.80;;;;;;;18.00;34.76;99286.38;30981572;28;101114;-65
2023/04/25 11:07:59;;;;;;;6.97;2.50;;;;;;;18.61;33.46;99265.00;30879120;28;97591;-64
2023/04/25 11:23:00;;;;;;;3.60;2.10;;;;;;;18.82;34.15;99273.44;30846187;28;97362;-64
2023/04/25 11:38:01;;;;;;;5.65;1.75;;;;;;;18.00;33.92;99282.84;30850202;28;96868;-63
2023/04/25 11:53:01;;;;;;;4.20;2.25;;;;;;;18.53;33.43;99276.22;31088805;28;97858;-64
2023/04/25 12:08:15;;;;;;;3.50;1.55;;;;;;;19.65;31.28;99275.34;31090477;28;114409;-64
2023/04/25 12:23:16;;;;;;;4.50;1.50;;;;;;;17.50;33.02;99285.09;31090447;28;96950;-64
2023/04/25 12:38:30;;;;;;;2.90;1.40;;;;;;;17.01;34.04;99306.13;31094869;28;102634;-68
2023/04/25 12:53:30;;;;;;;2.43;1.10;;;;;;;18.60;32.40;99298.47;31025163;28;96857;-64
2023/04/25 13:08:31;;;;;;;3.40;1.33;;;;;;;17.07;33.65;99289.84;30976735;28;97013;-65
2023/04/25 13:23:31;;;;;;;3.15;1.38;;;;;;;17.62;32.65;99289.63;30982954;28;97019;-64
2023/04/25 13:38:32;;;;;;;3.83;1.58;;;;;;;18.16;31.93;99297.44;30989894;28;96624;-65
2023/04/25 13:53:32;;;;;;;3.10;1.27;;;;;;;16.98;32.94;99299.31;30988609;28;96812;-65
2023/04/25 14:08:32;;;;;;;5.07;1.60;;;;;;;16.15;34.43;99307.22;30986726;28;97454;-65
2023/04/25 14:23:33;;;;;;;5.05;1.23;;;;;;;16.81;34.15;99304.53;30982258;28;114645;-65
2023/04/25 14:38:33;;;;;;;1.95;1.20;;;;;;;16.57;34.16;99312.59;30980682;28;98385;-67
2023/04/25 14:53:33;;;;;;;3.25;1.35;;;;;;;15.61;35.96;99336.59;30982951;28;96663;-65
2023/04/25 15:08:35;;;;;;;5.38;1.70;;;;;;;14.80;37.56;99360.69;30982552;28;97270;-65
2023/04/25 15:23:36;;;;;;;3.00;1.23;;;;;;;13.74;39.82;99394.19;30979612;28;96773;-64
2023/04/25 15:38:37;;;;;;;3.67;1.67;;;;;;;12.95;41.05;99386.03;30868779;28;96740;-65
2023/04/25 15:53:37;;;;;;;5.13;2.00;;;;;;;12.78;42.59;99397.13;31004356;28;97101;-65
2023/04/25 16:08:37;;;;;;;7.03;3.00;;;;;;;12.09;46.92;99419.56;30974061;28;96669;-65
2023/04/25 16:23:38;;;;;;;6.63;2.72;;;;;;;11.81;49.37;99423.06;30965011;28;96639;-64
2023/04/25 16:38:39;;;;;;;6.95;3.10;;;;;;;11.37;50.81;99434.91;30853139;28;96725;-65
2023/04/25 16:53:40;;;;;;;3.43;2.30;;;;;;;10.62;51.96;99465.41;30868914;28;96924;-64
2023/04/25 17:08:40;;;;;;;3.63;2.30;;;;;;;10.00;54.92;99487.94;30867425;28;96980;-64
2023/04/25 17:23:44;;;;;;;3.30;1.73;;;;;;;9.78;56.28;99521.59;30865855;28;96945;-64
2023/04/25 17:38:44;;;;;;;4.47;1.90;;;;;;;9.48;56.86;99533.00;30957326;28;96721;-63
2023/04/25 17:53:44;;;;;;;8.20;2.25;;;;;;;9.27;57.40;99544.31;30980399;28;116752;-63
2023/04/25 18:08:46;;;;;;;8.07;2.50;;;;;;;9.16;58.48;99563.34;30978663;28;97585;-64
2023/04/25 18:23:46;;;;;;;9.53;2.90;;;;;;;8.86;59.30;99583.56;30984963;28;97529;-67
2023/04/25 18:38:49;;;;;;;8.88;3.40;;;;;;;8.71;60.20;99602.09;30984889;28;97397;-65
2023/04/25 18:53:50;;;;;;;7.33;2.57;;;;;;;8.59;60.04;99623.69;30983573;28;96674;-64
2023/04/25 19:08:51;;;;;;;10.03;4.07;;;;;;;8.44;60.79;99630.69;30974378;28;96911;-63
2023/04/25 19:23:52;;;;;;;7.45;3.58;;;;;;;8.25;60.95;99639.84;30980553;28;96653;-63
2023/04/25 19:38:53;;;;;;;9.13;4.30;;;;;;;7.63;60.67;99642.03;30978872;28;97211;-64
2023/04/25 19:53:54;;;;;;;9.45;3.47;;;;;;;7.14;60.96;99652.53;30976513;28;96738;-65
2023/04/25 20:08:54;;;;;;;8.85;2.70;;;;;;;6.82;61.08;99664.69;30976671;28;96760;-64
2023/04/25 20:23:55;;;;;;;10.65;3.05;;;;;;;6.56;59.91;99685.88;30975095;28;96521;-65
2023/04/25 20:38:55;;;;;;;10.13;2.85;;;;;;;6.28;59.51;99675.47;30975272;28;96785;-65
2023/04/25 20:53:56;;;;;;;10.00;3.10;;;;;;;5.98;59.54;99682.84;30890136;28;97311;-65
2023/04/25 21:08:56;;;;;;;9.88;3.20;;;;;;;5.74;59.50;99701.91;30849581;28;97291;-62
2023/04/25 21:23:57;;;;;;;10.80;3.38;;;;;;;5.49;59.90;99716.72;30853399;28;96539;-67
2023/04/25 21:38:58;;;;;;;10.50;4.25;;;;;;;5.20;60.47;99726.47;30868521;28;96563;-61
2023/04/25 21:54:00;;;;;;;7.57;3.65;;;;;;;4.88;60.60;99740.91;30865850;28;97841;-65
2023/04/25 22:09:00;;;;;;;13.05;4.03;;;;;;;4.57;61.73;99746.41;30865514;28;97540;-65
2023/04/25 22:24:01;;;;;;;9.27;4.45;;;;;;;4.42;62.13;99762.84;30864506;28;96651;-62
2023/04/25 22:39:01;;;;;;;14.73;5.20;;;;;;;4.18;62.62;99778.13;30861990;28;96745;-68
2023/04/25 22:54:02;;;;;;;10.05;3.70;;;;;;;4.01;63.05;99782.25;30861492;28;97431;-63
2023/04/25 23:09:03;;;;;;;12.00;4.05;;;;;;;3.87;62.85;99786.13;30859603;28;96704;-62
2023/04/25 23:24:04;;;;;;;7.65;3.25;;;;;;;3.78;63.67;99792.22;30859345;28;96702;-65
2023/04/25 23:39:08;;;;;;;8.38;3.85;;;;;;;3.75;63.43;99786.41;30858069;28;97222;-63
2023/04/25 23:54:09;;;;;;;11.50;3.23;;;;;;;3.56;64.01;99794.13;30913188;28;97591;-62
